Jacobus — OR3790 — position and weather

sailwx.info

Track history (hours):
 
Tides and Currents Weather Stations Pressure Air Temp Water Temp Dewpoint Dewpoint Depression Visibility Wind Speed Wind Dir Waves Ship Positions

Jacobus

Last reported at 2017-Apr-23 09:41 UTC. Time now 2017-Apr-30 16:45 UTC.
Position N 38°00' W 000°35'.

Length 17 m.

Type: Pleasure craft. MMSI: 205379010.

Date/timePositionNaut miles runAvg speedWind from/ knotsBaromVisibWave heightAir tempDewpointWater temp
2017-Apr-23 09:41N 38°00' W 000°35'1 5.3
2017-Apr-23 09:30N 38°00' W 000°36'3 5.5
2017-Apr-23 09:00N 37°58' W 000°39'2 3.8
2017-Apr-23 08:29N 37°58' W 000°41'0 0.1
2017-Apr-23 08:00N 37°58' W 000°41'0 0.0
2017-Apr-22 18:43N 37°58' W 000°41'0 0.0
2017-Apr-22 18:28N 37°58' W 000°41'  
2017-Apr-19 07:45N 37°58' W 000°41'  
2017-Apr-15 12:29N 37°58' W 000°41'1 1.9
2017-Apr-15 12:00N 37°57' W 000°41'3 6.7
2017-Apr-15 11:29N 37°54' W 000°40'3 6.5
2017-Apr-15 11:00N 37°51' W 000°40'4 6.8
2017-Apr-15 10:25N 37°47' W 000°39'3 6.8
2017-Apr-15 10:00N 37°44' W 000°38'4 7.1
2017-Apr-15 09:29N 37°41' W 000°37'  
Track history (hours):
 
Tides and Currents Weather Stations Pressure Air Temp Water Temp Dewpoint Dewpoint Depression Visibility Wind Speed Wind Dir Waves Ship Positions

Jacobus

Last reported at 2017-Apr-23 09:41 UTC. Time now 2017-Apr-30 16:45 UTC.
Position N 38°00' W 000°35'.

Length 17 m.

Type: Pleasure craft. MMSI: 205379010.

Date/timePositionNaut miles runAvg speedWind from/ knotsBaromVisibWave heightAir tempDewpointWater temp
2017-Apr-23 09:41N 38°00' W 000°35'1 5.3
2017-Apr-23 09:30N 38°00' W 000°36'3 5.5
2017-Apr-23 09:00N 37°58' W 000°39'2 3.8
2017-Apr-23 08:29N 37°58' W 000°41'0 0.1
2017-Apr-23 08:00N 37°58' W 000°41'0 0.0
2017-Apr-22 18:43N 37°58' W 000°41'0 0.0
2017-Apr-22 18:28N 37°58' W 000°41'  
2017-Apr-19 07:45N 37°58' W 000°41'  
2017-Apr-15 12:29N 37°58' W 000°41'1 1.9
2017-Apr-15 12:00N 37°57' W 000°41'3 6.7
2017-Apr-15 11:29N 37°54' W 000°40'3 6.5
2017-Apr-15 11:00N 37°51' W 000°40'4 6.8
2017-Apr-15 10:25N 37°47' W 000°39'3 6.8
2017-Apr-15 10:00N 37°44' W 000°38'4 7.1
2017-Apr-15 09:29N 37°41' W 000°37'  

Dump ship's entire track history